Time;durP1;ratioP1;P1;durP2;ratioP2;P2;SDS_P1;SDS_P2;PMS_P1;PMS_P2;Temp;Humidity;BMP_temperature;BMP_pressure;BME280_temperature;BME280_humidity;BME280_pressure;Samples;Min_cycle;Max_cycle;Signal;HPM_P1;HPM_P2
2023/10/02 00:02:40;;;;;;;13.77;7.07;;;14.00;99.90;;;;;;4873399;29;20028;-74
2023/10/02 00:05:05;;;;;;;15.68;7.68;;;14.00;99.80;;;;;;4872965;29;20101;-74
2023/10/02 00:07:33;;;;;;;13.07;6.80;;;13.90;99.90;;;;;;4873441;29;20378;-74
2023/10/02 00:10:00;;;;;;;14.35;7.18;;;13.90;99.90;;;;;;4889195;29;20029;-74
2023/10/02 00:12:28;;;;;;;12.23;7.13;;;13.90;99.90;;;;;;4891662;29;20037;-73
2023/10/02 00:14:55;;;;;;;15.55;7.43;;;13.90;99.90;;;;;;4892110;29;20207;-75
2023/10/02 00:17:24;;;;;;;13.00;6.60;;;13.80;99.90;;;;;;4891020;29;20065;-74
2023/10/02 00:19:57;;;;;;;14.82;7.20;;;13.80;99.90;;;;;;4891830;29;20056;-74
2023/10/02 00:22:43;;;;;;;15.93;7.30;;;13.80;99.90;;;;;;4891078;29;20096;-74
2023/10/02 00:25:19;;;;;;;15.90;7.47;;;13.90;99.90;;;;;;4887176;29;20148;-76
2023/10/02 00:27:50;;;;;;;15.70;7.25;;;13.90;99.90;;;;;;4891350;29;20104;-74
2023/10/02 00:30:20;;;;;;;16.08;7.35;;;13.90;99.90;;;;;;4873199;29;20072;-74
2023/10/02 06:56:32;;;;;;;16.67;7.30;;;14.00;99.90;;;;;;5197949;23;20050;-74
2023/10/02 06:58:57;;;;;;;17.75;7.60;;;14.00;99.90;;;;;;4923395;29;20057;-75
2023/10/02 07:01:27;;;;;;;18.30;7.75;;;14.10;99.90;;;;;;4896977;29;20040;-75
2023/10/02 07:03:54;;;;;;;17.80;7.78;;;14.20;99.90;;;;;;4914877;29;20035;-75
2023/10/02 07:06:25;;;;;;;16.35;7.72;;;14.30;99.90;;;;;;4926488;29;20295;-75
2023/10/02 07:09:10;;;;;;;14.90;7.13;;;14.30;99.90;;;;;;4926290;29;20043;-76
2023/10/02 07:46:43;;;;;;;16.05;7.72;;;15.90;99.90;;;;;;5423424;23;20058;-75
2023/10/02 07:49:10;;;;;;;12.57;6.63;;;16.10;99.90;;;;;;4942051;29;20039;-76
2023/10/02 07:51:39;;;;;;;17.08;7.35;;;16.20;99.90;;;;;;4945181;29;20027;-75
2023/10/02 07:54:13;;;;;;;15.48;6.65;;;16.30;99.90;;;;;;4940533;29;20016;-74
2023/10/02 07:56:41;;;;;;;15.57;7.55;;;16.40;99.90;;;;;;4940128;29;20040;-75
2023/10/02 07:59:07;;;;;;;16.38;7.00;;;16.50;99.90;;;;;;4943712;29;20035;-77
2023/10/02 08:01:33;;;;;;;19.33;7.60;;;16.50;99.90;;;;;;4927655;29;20262;-75
2023/10/02 08:04:01;;;;;;;16.08;7.53;;;16.60;99.90;;;;;;4944416;29;20305;-75
2023/10/02 08:11:48;;;;;;;17.27;7.93;;;16.90;99.90;;;;;;4945063;29;20047;-75
2023/10/02 08:16:59;;;;;;;15.60;7.38;;;17.00;99.90;;;;;;4910500;29;20047;-76
2023/10/02 08:19:24;;;;;;;22.60;9.02;;;17.10;99.90;;;;;;4935825;29;20036;-76
2023/10/02 08:21:53;;;;;;;15.25;7.85;;;17.10;99.90;;;;;;4930976;29;20027;-76
2023/10/02 08:24:19;;;;;;;18.00;8.02;;;17.30;99.90;;;;;;4935523;29;20031;-76
2023/10/02 08:26:45;;;;;;;17.08;7.88;;;17.40;99.90;;;;;;4930951;29;20039;-75
2023/10/02 08:29:15;;;;;;;14.68;7.13;;;17.50;99.90;;;;;;4941360;29;20039;-75
2023/10/02 08:31:48;;;;;;;17.40;7.68;;;17.70;99.60;;;;;;4948004;29;20044;-76
2023/10/02 08:34:24;;;;;;;16.95;7.68;;;17.70;99.60;;;;;;4947915;29;20035;-76
2023/10/02 08:37:05;;;;;;;18.63;7.88;;;17.80;99.50;;;;;;4930663;29;20039;-75
2023/10/02 08:39:40;;;;;;;17.15;7.60;;;17.90;99.30;;;;;;4947932;29;20038;-76
2023/10/02 08:42:10;;;;;;;15.75;7.75;;;18.10;98.90;;;;;;4932147;29;20056;-76
2023/10/02 08:44:41;;;;;;;17.83;7.63;;;18.20;98.70;;;;;;4928705;29;20111;-76
2023/10/02 08:47:08;;;;;;;21.00;8.02;;;18.30;98.10;;;;;;4928252;29;20087;-76
2023/10/02 08:49:35;;;;;;;17.48;7.85;;;18.30;97.70;;;;;;4928885;29;20037;-75
2023/10/02 08:52:04;;;;;;;16.90;7.30;;;18.40;97.80;;;;;;4928538;29;20055;-76
2023/10/02 08:54:31;;;;;;;19.67;7.60;;;18.50;97.60;;;;;;4938205;29;20474;-74
2023/10/02 08:57:08;;;;;;;18.75;8.18;;;18.60;97.40;;;;;;4946796;29;20031;-74
2023/10/02 08:59:41;;;;;;;17.90;7.80;;;18.70;96.90;;;;;;4947592;29;20071;-75
2023/10/02 09:02:16;;;;;;;16.05;7.55;;;18.80;96.90;;;;;;4947022;29;20035;-77
2023/10/02 09:05:09;;;;;;;27.48;8.68;;;18.90;96.50;;;;;;4947240;29;20284;-78
2023/10/02 09:10:25;;;;;;;17.65;7.22;;;19.20;96.20;;;;;;4947223;29;20038;-77
2023/10/02 09:13:11;;;;;;;17.80;7.65;;;19.40;96.10;;;;;;4946606;29;20035;-78
2023/10/02 09:15:37;;;;;;;17.02;7.65;;;19.60;95.60;;;;;;4947380;29;20035;-76
2023/10/02 09:18:22;;;;;;;18.63;7.68;;;19.70;95.30;;;;;;4929913;29;20049;-76
2023/10/02 09:21:13;;;;;;;14.70;7.47;;;19.90;95.10;;;;;;4929750;29;20095;-78
2023/10/02 09:23:51;;;;;;;17.48;8.05;;;20.10;94.60;;;;;;4917546;29;20103;-78
2023/10/02 09:26:23;;;;;;;16.10;7.57;;;20.20;94.20;;;;;;4947502;29;20051;-77
2023/10/02 09:28:59;;;;;;;18.38;7.57;;;20.30;93.80;;;;;;4937690;29;20031;-78
2023/10/02 09:31:35;;;;;;;16.88;7.88;;;20.30;93.50;;;;;;4941129;29;20066;-78
2023/10/02 09:34:16;;;;;;;21.35;8.40;;;20.40;93.40;;;;;;4959647;29;20055;-77
2023/10/02 09:36:54;;;;;;;20.40;7.95;;;20.50;93.90;;;;;;4957350;28;20035;-78
2023/10/02 09:39:31;;;;;;;19.03;8.67;;;20.60;94.20;;;;;;4955759;29;20031;-79
2023/10/02 09:42:06;;;;;;;22.70;8.30;;;20.70;93.00;;;;;;4950023;28;20450;-79
2023/10/02 09:44:42;;;;;;;20.35;7.88;;;20.80;93.00;;;;;;4914122;29;20035;-78
2023/10/02 09:47:08;;;;;;;16.98;8.07;;;20.90;92.90;;;;;;4926312;29;20348;-79
2023/10/02 09:49:44;;;;;;;15.68;7.72;;;21.00;92.60;;;;;;4927915;29;20024;-77
2023/10/02 09:52:16;;;;;;;17.00;8.00;;;21.20;92.00;;;;;;4927127;29;20080;-76
2023/10/02 09:55:00;;;;;;;20.63;8.48;;;21.30;92.30;;;;;;4916518;29;20033;-76
2023/10/02 09:57:34;;;;;;;15.05;7.07;;;21.50;91.50;;;;;;4908972;29;20040;-78
2023/10/02 10:03:24;;;;;;;16.55;7.90;;;21.80;90.80;;;;;;4907981;29;20312;-77
2023/10/02 10:06:08;;;;;;;20.05;9.13;;;22.00;90.70;;;;;;4902997;29;20052;-79
2023/10/02 10:11:43;;;;;;;18.90;8.50;;;22.30;89.70;;;;;;4888879;29;20037;-78
2023/10/02 10:14:36;;;;;;;18.90;7.97;;;22.40;88.40;;;;;;4888060;29;20048;-79
2023/10/02 10:17:12;;;;;;;16.83;7.95;;;22.60;87.20;;;;;;4889218;29;20025;-77
2023/10/02 10:20:09;;;;;;;15.95;7.63;;;22.70;86.70;;;;;;4897688;29;20029;-77
2023/10/02 10:22:36;;;;;;;16.23;7.40;;;22.80;86.30;;;;;;4891655;29;20040;-79
2023/10/02 10:27:41;;;;;;;17.55;8.13;;;23.00;84.90;;;;;;4906995;29;20028;-78
2023/10/02 10:30:19;;;;;;;18.63;8.45;;;23.10;85.00;;;;;;4907580;29;20038;-78
2023/10/02 10:32:45;;;;;;;17.20;8.10;;;23.30;83.90;;;;;;4907846;29;20072;-77
2023/10/02 10:35:35;;;;;;;15.90;7.93;;;23.40;83.80;;;;;;4906586;29;20040;-79
2023/10/02 10:38:07;;;;;;;20.20;8.52;;;23.50;82.50;;;;;;4907803;29;20036;-78
2023/10/02 10:40:44;;;;;;;16.55;8.18;;;23.70;82.10;;;;;;4909242;29;20041;-80
2023/10/02 10:43:13;;;;;;;18.40;8.33;;;23.80;81.20;;;;;;4908290;29;20045;-81
2023/10/02 10:45:40;;;;;;;18.98;8.23;;;24.10;80.00;;;;;;4910276;29;20476;-78
2023/10/02 10:48:18;;;;;;;18.58;8.40;;;24.50;79.10;;;;;;4946451;29;20329;-80
2023/10/02 10:51:02;;;;;;;15.95;8.02;;;24.70;78.10;;;;;;4929333;29;20066;-79
2023/10/02 10:53:28;;;;;;;15.68;8.48;;;25.20;77.00;;;;;;4945559;29;20042;-78
2023/10/02 10:56:05;;;;;;;17.60;8.52;;;25.70;75.90;;;;;;4945147;29;20040;-78
2023/10/02 10:59:14;;;;;;;21.13;9.70;;;26.20;75.20;;;;;;4931504;29;20329;-78
2023/10/02 11:04:50;;;;;;;14.82;8.10;;;27.90;70.40;;;;;;4945670;29;20312;-79
2023/10/02 11:07:22;;;;;;;19.75;9.27;;;28.60;68.50;;;;;;4928767;29;20039;-78
2023/10/02 11:10:15;;;;;;;17.58;8.98;;;29.30;66.90;;;;;;4945685;29;20095;-78
2023/10/02 11:12:59;;;;;;;19.20;9.23;;;29.90;65.00;;;;;;4945479;29;20258;-78
2023/10/02 11:15:46;;;;;;;15.43;9.80;;;30.40;63.90;;;;;;4945869;29;20036;-78
2023/10/02 11:18:18;;;;;;;14.73;9.15;;;31.00;62.60;;;;;;4928474;29;20027;-79
2023/10/02 11:20:49;;;;;;;18.92;9.70;;;31.80;61.10;;;;;;4945431;29;20262;-76
2023/10/02 11:23:37;;;;;;;17.48;9.75;;;31.90;59.50;;;;;;4945560;29;20071;-77
2023/10/02 11:26:10;;;;;;;15.45;9.70;;;32.10;59.50;;;;;;4944883;29;20035;-78
2023/10/02 11:28:37;;;;;;;17.55;10.38;;;32.80;58.60;;;;;;4928923;29;20045;-78
2023/10/02 11:31:45;;;;;;;17.30;10.32;;;33.10;56.40;;;;;;4944877;29;20079;-78
2023/10/02 11:34:11;;;;;;;18.50;11.27;;;33.80;55.60;;;;;;4945134;29;20047;-77
2023/10/02 11:36:52;;;;;;;19.00;11.07;;;34.10;54.30;;;;;;4944088;29;20044;-78
2023/10/02 11:39:19;;;;;;;20.10;10.98;;;34.70;54.10;;;;;;4930200;29;20044;-77
2023/10/02 11:41:50;;;;;;;18.33;10.63;;;34.90;53.30;;;;;;4944181;29;20372;-78
2023/10/02 11:44:19;;;;;;;21.55;12.45;;;35.30;51.80;;;;;;4927738;29;20116;-78
2023/10/02 11:46:45;;;;;;;23.40;12.68;;;35.40;50.40;;;;;;4926785;29;20044;-78
2023/10/02 11:49:10;;;;;;;24.02;13.63;;;35.80;49.10;;;;;;4927230;29;20511;-78
2023/10/02 11:51:36;;;;;;;22.40;13.05;;;36.10;48.70;;;;;;4945626;29;20351;-78
2023/10/02 11:54:05;;;;;;;26.77;13.95;;;36.50;48.60;;;;;;4909524;29;20036;-79
2023/10/02 11:56:31;;;;;;;22.88;13.60;;;36.80;47.70;;;;;;4928039;29;20036;-78
2023/10/02 11:59:04;;;;;;;20.27;12.77;;;36.50;47.40;;;;;;4927511;29;20036;-77
2023/10/02 12:01:29;;;;;;;19.98;12.35;;;37.10;47.50;;;;;;4928219;29;20044;-77
2023/10/02 12:03:57;;;;;;;45.97;17.08;;;37.80;47.90;;;;;;4934620;29;20035;-78
2023/10/02 12:06:23;;;;;;;;;;;38.20;45.80;;;;;;4947524;29;20035;-77
2023/10/02 12:08:50;;;;;;;22.95;13.75;;;38.60;46.00;;;;;;4946934;29;20002;-78
2023/10/02 12:11:16;;;;;;;23.90;13.75;;;38.80;44.80;;;;;;4930311;29;20035;-77
2023/10/02 12:13:44;;;;;;;25.30;14.40;;;39.10;45.10;;;;;;4946978;29;20054;-78
2023/10/02 12:16:11;;;;;;;26.20;14.82;;;39.20;45.10;;;;;;4931179;29;20032;-77
2023/10/02 12:18:43;;;;;;;22.35;14.07;;;39.20;44.10;;;;;;4931475;29;20031;-77
2023/10/02 12:21:11;;;;;;;21.67;13.52;;;39.30;44.20;;;;;;4948334;29;20186;-77
2023/10/02 12:23:40;;;;;;;22.60;13.98;;;39.80;44.50;;;;;;4948619;29;20028;-77
2023/10/02 12:26:16;;;;;;;22.00;13.73;;;40.10;44.20;;;;;;4926986;29;20055;-76
2023/10/02 12:28:42;;;;;;;23.52;13.20;;;40.50;44.50;;;;;;4911607;29;20246;-77
2023/10/02 12:31:10;;;;;;;20.55;12.57;;;41.10;43.90;;;;;;4934986;29;20281;-77
2023/10/02 12:33:38;;;;;;;23.83;14.43;;;41.20;43.50;;;;;;4946604;29;20300;-76
2023/10/02 12:36:17;;;;;;;21.50;13.95;;;41.50;43.20;;;;;;4929677;29;20131;-77
2023/10/02 12:38:46;;;;;;;22.55;13.85;;;41.40;43.00;;;;;;4946100;29;20059;-76
2023/10/02 12:41:17;;;;;;;22.10;13.45;;;42.10;42.70;;;;;;4948545;29;20039;-76
2023/10/02 12:43:44;;;;;;;23.02;14.73;;;42.50;42.80;;;;;;4946109;29;20043;-78
2023/10/02 12:46:15;;;;;;;21.40;14.48;;;42.50;42.30;;;;;;4945681;29;20052;-77
2023/10/02 12:48:52;;;;;;;20.90;13.38;;;42.50;41.30;;;;;;4931928;29;20050;-76
2023/10/02 12:51:19;;;;;;;23.35;14.10;;;42.70;41.30;;;;;;4926684;29;20058;-77
2023/10/02 12:53:48;;;;;;;21.95;14.20;;;43.00;41.80;;;;;;4923489;29;20096;-75
2023/10/02 12:56:19;;;;;;;24.95;15.00;;;42.70;41.60;;;;;;4894813;29;20067;-76
2023/10/02 12:58:48;;;;;;;23.02;14.85;;;43.20;41.60;;;;;;4895552;29;20046;-77
2023/10/02 13:01:29;;;;;;;18.98;13.32;;;43.50;40.60;;;;;;4894462;29;20048;-80
2023/10/02 13:03:56;;;;;;;20.38;13.60;;;44.30;40.50;;;;;;4910575;29;20032;-78
2023/10/02 13:06:26;;;;;;;21.08;13.85;;;44.50;40.50;;;;;;4926689;29;20087;-79
2023/10/02 13:08:55;;;;;;;23.00;15.18;;;44.90;39.90;;;;;;4910847;29;20024;-77
2023/10/02 13:11:21;;;;;;;20.73;13.80;;;44.80;40.00;;;;;;4910826;29;20218;-77
2023/10/02 13:13:48;;;;;;;22.40;15.07;;;45.30;39.80;;;;;;4926896;29;20072;-77
2023/10/02 13:16:15;;;;;;;21.83;15.02;;;45.60;39.10;;;;;;4926227;29;20447;-77
2023/10/02 13:18:43;;;;;;;20.63;14.57;;;45.60;38.90;;;;;;4924697;29;20329;-76
2023/10/02 13:21:17;;;;;;;23.27;15.13;;;45.90;38.50;;;;;;4892306;29;20081;-77
2023/10/02 13:23:43;;;;;;;24.20;14.50;;;45.80;38.90;;;;;;4928600;29;20044;-77
2023/10/02 13:26:10;;;;;;;22.00;14.73;;;46.70;39.00;;;;;;4926581;29;20040;-77
2023/10/02 13:28:36;;;;;;;;;;;46.90;38.20;;;;;;4928590;29;20104;-77
2023/10/02 13:31:14;;;;;;;23.45;15.20;;;46.60;38.80;;;;;;4935275;29;19906;-78
2023/10/02 13:33:40;;;;;;;24.67;15.23;;;46.20;38.50;;;;;;4947274;29;20043;-78
2023/10/02 13:36:07;;;;;;;;;;;46.10;38.90;;;;;;4946066;29;20032;-77
2023/10/02 13:38:35;;;;;;;26.48;15.05;;;46.20;38.60;;;;;;4946086;29;20121;-77
2023/10/02 13:41:11;;;;;;;20.73;14.55;;;45.90;39.20;;;;;;4929811;29;20079;-77
2023/10/02 13:43:45;;;;;;;23.20;15.82;;;45.90;37.90;;;;;;4947076;29;20031;-77
2023/10/02 13:46:12;;;;;;;22.05;14.63;;;45.40;38.00;;;;;;4928875;29;20055;-77
2023/10/02 13:48:38;;;;;;;23.02;15.48;;;45.90;38.90;;;;;;4929840;29;20031;-78
2023/10/02 13:51:05;;;;;;;22.30;15.10;;;46.50;38.10;;;;;;4945165;29;20099;-77
2023/10/02 13:53:37;;;;;;;23.88;15.02;;;47.00;37.90;;;;;;4945838;29;20026;-79
2023/10/02 13:56:13;;;;;;;23.45;15.50;;;47.70;37.80;;;;;;4913659;29;20047;-79
2023/10/02 13:58:44;;;;;;;23.90;16.08;;;47.30;37.20;;;;;;4938230;29;20042;-78
2023/10/02 14:01:14;;;;;;;22.50;15.90;;;47.20;37.40;;;;;;4926162;29;20048;-78
2023/10/02 14:03:46;;;;;;;23.70;15.70;;;47.20;37.80;;;;;;4938230;29;20086;-78
2023/10/02 14:06:17;;;;;;;23.58;15.35;;;46.80;37.20;;;;;;4910889;29;20099;-78
2023/10/02 14:08:45;;;;;;;23.38;15.23;;;47.10;37.10;;;;;;4928145;29;20238;-77
2023/10/02 14:11:17;;;;;;;21.58;15.18;;;46.80;37.60;;;;;;4910461;29;20032;-77
2023/10/02 14:13:47;;;;;;;24.60;15.98;;;47.10;37.00;;;;;;4909780;29;20032;-78
2023/10/02 14:16:14;;;;;;;23.55;15.82;;;47.10;36.80;;;;;;4911562;29;20079;-78
2023/10/02 14:18:41;;;;;;;22.60;15.23;;;46.80;36.60;;;;;;4897089;29;20020;-77
2023/10/02 14:21:09;;;;;;;22.63;15.98;;;46.00;37.90;;;;;;4945773;29;20111;-77
2023/10/02 14:23:36;;;;;;;23.90;15.95;;;46.60;37.30;;;;;;4913326;29;20027;-77
2023/10/02 14:26:06;;;;;;;23.23;15.25;;;46.90;37.50;;;;;;4945905;29;20026;-77
2023/10/02 14:28:32;;;;;;;23.40;15.70;;;46.90;37.30;;;;;;4928955;29;20213;-76
2023/10/02 14:31:00;;;;;;;26.07;15.97;;;46.70;37.30;;;;;;4909490;29;20036;-78
2023/10/02 14:33:25;;;;;;;20.95;15.48;;;46.90;37.20;;;;;;4926951;29;20022;-77
2023/10/02 14:35:53;;;;;;;29.60;16.93;;;47.00;37.00;;;;;;4926061;29;20032;-78
2023/10/02 14:38:21;;;;;;;22.98;15.95;;;47.20;37.00;;;;;;4910048;29;20064;-78
2023/10/02 14:40:47;;;;;;;23.25;15.48;;;46.80;37.50;;;;;;4927058;29;20136;-77
2023/10/02 14:43:13;;;;;;;25.33;16.05;;;47.10;37.10;;;;;;4926625;29;20039;-77
2023/10/02 14:46:04;;;;;;;23.47;16.47;;;46.90;37.10;;;;;;4926259;29;20036;-78
2023/10/02 14:48:34;;;;;;;24.65;16.42;;;47.00;37.40;;;;;;4910090;29;20031;-78
2023/10/02 14:51:05;;;;;;;24.33;16.35;;;47.30;36.60;;;;;;4909494;29;20052;-79
2023/10/02 14:53:32;;;;;;;24.20;16.08;;;46.50;36.80;;;;;;4911743;29;20050;-78
2023/10/02 14:56:03;;;;;;;23.23;15.65;;;46.30;36.70;;;;;;4945909;29;20031;-78
2023/10/02 14:58:29;;;;;;;26.38;16.60;;;45.90;37.40;;;;;;4945852;29;20015;-78
2023/10/02 15:00:55;;;;;;;23.93;16.63;;;46.00;37.30;;;;;;4946267;29;20321;-78
2023/10/02 15:03:20;;;;;;;24.70;15.87;;;46.30;37.40;;;;;;4945715;29;20508;-80
2023/10/02 15:05:46;;;;;;;23.37;15.20;;;46.10;37.50;;;;;;4945934;29;20023;-78
2023/10/02 15:08:15;;;;;;;25.57;16.47;;;46.40;38.00;;;;;;4928386;29;20079;-77
2023/10/02 15:10:42;;;;;;;23.52;15.38;;;46.30;38.10;;;;;;4913132;29;20250;-77
2023/10/02 15:13:08;;;;;;;23.52;14.73;;;46.50;37.40;;;;;;4912784;29;20095;-79
2023/10/02 15:15:34;;;;;;;23.88;15.52;;;46.00;38.10;;;;;;4928887;29;20032;-79
2023/10/02 15:18:02;;;;;;;23.73;14.97;;;46.00;38.10;;;;;;4945773;29;20364;-78
2023/10/02 15:20:28;;;;;;;21.75;14.48;;;45.90;38.20;;;;;;4947066;29;20011;-78
2023/10/02 15:22:55;;;;;;;21.98;14.70;;;45.90;38.60;;;;;;4938659;29;20020;-78
2023/10/02 15:25:22;;;;;;;21.63;14.75;;;45.30;38.80;;;;;;4955089;28;20301;-78
2023/10/02 15:27:49;;;;;;;;;;;45.40;39.60;;;;;;4958709;29;20026;-78
2023/10/02 15:30:17;;;;;;;21.35;14.50;;;45.40;39.20;;;;;;4946610;29;19906;-78
2023/10/02 15:32:45;;;;;;;22.95;14.05;;;44.80;38.80;;;;;;4932273;29;20337;-78
2023/10/02 15:35:12;;;;;;;22.08;13.85;;;44.70;39.20;;;;;;4948971;29;20032;-79
2023/10/02 15:37:39;;;;;;;20.40;13.45;;;44.50;39.50;;;;;;4949133;29;20222;-79
2023/10/02 15:40:09;;;;;;;21.75;14.60;;;44.70;39.50;;;;;;4931976;29;20289;-79
2023/10/02 15:42:37;;;;;;;20.98;13.95;;;44.30;39.40;;;;;;4949366;29;20030;-79
2023/10/02 15:45:04;;;;;;;22.23;14.60;;;43.80;39.90;;;;;;4948799;29;20221;-78
2023/10/02 15:47:33;;;;;;;21.58;14.18;;;44.00;40.20;;;;;;4932319;29;20114;-79
2023/10/02 15:50:07;;;;;;;23.02;14.10;;;43.60;39.90;;;;;;4932634;29;20237;-79
2023/10/02 15:52:37;;;;;;;24.38;14.77;;;43.20;40.50;;;;;;4917065;29;20137;-78
2023/10/02 15:55:09;;;;;;;19.10;13.30;;;43.00;40.80;;;;;;4931516;29;20035;-77
2023/10/02 15:57:39;;;;;;;21.52;14.05;;;42.60;41.10;;;;;;4949055;29;20016;-77
2023/10/02 16:00:09;;;;;;;23.35;14.55;;;42.30;40.70;;;;;;4948689;29;20392;-80
2023/10/02 16:02:43;;;;;;;21.90;13.18;;;41.50;41.40;;;;;;4949130;29;20349;-78
2023/10/02 16:05:11;;;;;;;24.08;14.95;;;40.60;42.50;;;;;;4949160;29;20042;-79
2023/10/02 16:07:38;;;;;;;24.25;13.93;;;39.60;43.50;;;;;;4948947;29;20050;-77
2023/10/02 16:10:16;;;;;;;24.92;14.82;;;38.80;43.90;;;;;;4931916;29;20039;-77
2023/10/02 16:12:52;;;;;;;24.10;14.40;;;38.10;44.10;;;;;;4949114;29;20074;-76
2023/10/02 16:15:28;;;;;;;27.33;15.40;;;37.80;44.40;;;;;;4948403;29;20036;-77
2023/10/02 16:17:55;;;;;;;28.23;15.75;;;37.30;44.60;;;;;;4931703;29;20058;-75
2023/10/02 16:20:23;;;;;;;27.98;15.75;;;37.10;44.80;;;;;;4948010;29;20055;-76
2023/10/02 16:22:53;;;;;;;27.15;16.20;;;36.40;45.00;;;;;;4931839;29;20209;-77
2023/10/02 16:25:19;;;;;;;30.52;16.67;;;35.50;46.20;;;;;;4915856;29;20028;-76
2023/10/02 16:27:52;;;;;;;30.60;16.50;;;34.50;47.40;;;;;;4931980;29;20032;-78
2023/10/02 16:30:27;;;;;;;28.05;16.85;;;33.70;48.00;;;;;;4915733;29;20019;-79
2023/10/02 16:32:53;;;;;;;29.08;15.75;;;33.00;49.30;;;;;;4916232;29;20074;-76
2023/10/02 16:35:29;;;;;;;28.50;16.15;;;32.60;49.80;;;;;;4919019;29;20221;-78
2023/10/02 16:37:59;;;;;;;29.45;15.18;;;32.00;50.40;;;;;;4947424;29;20038;-78
2023/10/02 16:40:54;;;;;;;29.38;15.15;;;31.80;50.80;;;;;;4935131;29;20079;-76
2023/10/02 16:43:21;;;;;;;29.38;15.98;;;31.20;51.10;;;;;;4915312;29;20023;-78
2023/10/02 16:46:06;;;;;;;30.38;15.95;;;30.80;51.80;;;;;;4913986;29;20031;-77
2023/10/02 16:48:32;;;;;;;28.42;16.02;;;30.60;53.00;;;;;;4915379;29;20031;-77
2023/10/02 16:50:58;;;;;;;33.25;16.92;;;30.20;53.60;;;;;;4915432;29;20317;-77
2023/10/02 16:53:24;;;;;;;28.65;15.85;;;29.90;54.40;;;;;;4947487;29;20335;-78
2023/10/02 16:56:00;;;;;;;29.60;15.63;;;29.50;55.20;;;;;;4946584;29;20063;-77
2023/10/02 16:58:26;;;;;;;33.08;16.10;;;29.10;56.10;;;;;;4914810;29;20024;-76
2023/10/02 17:00:52;;;;;;;32.35;16.30;;;28.70;57.20;;;;;;4920670;29;20024;-76
2023/10/02 17:03:20;;;;;;;30.88;15.77;;;28.30;58.10;;;;;;4947122;29;20066;-76
2023/10/02 17:05:46;;;;;;;31.20;15.57;;;28.00;58.80;;;;;;4930851;29;20027;-78
2023/10/02 17:08:12;;;;;;;29.60;14.90;;;27.70;59.30;;;;;;4947186;29;20039;-78
2023/10/02 17:10:41;;;;;;;34.85;16.33;;;27.30;59.70;;;;;;4931180;29;20074;-79
2023/10/02 17:13:09;;;;;;;34.10;15.25;;;26.90;61.40;;;;;;4930936;29;20050;-78
2023/10/02 17:15:35;;;;;;;34.95;15.90;;;26.40;61.40;;;;;;4947677;29;20035;-77
2023/10/02 17:18:01;;;;;;;32.90;16.60;;;25.90;62.20;;;;;;4947623;29;20027;-79
2023/10/02 17:20:29;;;;;;;32.08;15.23;;;25.60;63.10;;;;;;4930718;29;20027;-79
2023/10/02 17:22:56;;;;;;;33.30;16.20;;;25.30;63.20;;;;;;4915391;29;20035;-80
2023/10/02 17:25:24;;;;;;;33.80;16.20;;;25.10;63.80;;;;;;4947142;29;20067;-79
2023/10/02 17:28:00;;;;;;;33.03;15.55;;;25.00;63.80;;;;;;4947524;29;20019;-79
2023/10/02 17:30:26;;;;;;;33.90;16.88;;;25.00;64.20;;;;;;4946998;29;20125;-79
2023/10/02 17:32:55;;;;;;;31.92;15.75;;;25.00;63.80;;;;;;4947431;29;20058;-78
2023/10/02 17:35:21;;;;;;;33.22;15.15;;;24.90;63.60;;;;;;4930313;29;20305;-78
2023/10/02 17:41:22;;;;;;;32.65;15.77;;;24.90;63.40;;;;;;4946991;29;20028;-79
2023/10/02 17:46:46;;;;;;;35.00;16.00;;;24.50;64.00;;;;;;4923335;29;20076;-79
2023/10/02 17:49:39;;;;;;;34.58;15.07;;;24.30;64.50;;;;;;4927748;29;20038;-79
2023/10/02 17:52:10;;;;;;;33.40;16.00;;;24.00;65.40;;;;;;4911439;29;20103;-77
2023/10/02 17:54:38;;;;;;;34.90;15.07;;;23.70;65.60;;;;;;4926453;29;20052;-77
2023/10/02 17:57:05;;;;;;;32.72;15.77;;;23.60;66.20;;;;;;4910650;29;20369;-80
2023/10/02 18:00:17;;;;;;;32.10;16.73;;;23.40;66.50;;;;;;4926154;29;20045;-79
2023/10/02 18:02:49;;;;;;;30.38;16.00;;;23.20;66.90;;;;;;4919414;29;20104;-80
2023/10/02 18:05:20;;;;;;;34.53;16.63;;;23.10;67.80;;;;;;4907159;29;20032;-79
2023/10/02 18:07:53;;;;;;;33.30;16.25;;;23.00;68.60;;;;;;4903332;29;20037;-80
2023/10/02 18:10:54;;;;;;;29.15;15.45;;;23.00;68.80;;;;;;4907248;29;20334;-80
2023/10/02 18:13:47;;;;;;;31.45;15.63;;;22.90;69.30;;;;;;4907714;29;20044;-79
2023/10/02 18:16:19;;;;;;;33.35;16.67;;;22.90;69.60;;;;;;4902517;29;20115;-79
2023/10/02 18:18:44;;;;;;;34.60;15.95;;;22.70;70.10;;;;;;4907800;29;20036;-78
2023/10/02 18:21:18;;;;;;;36.45;17.27;;;22.60;70.50;;;;;;4908555;29;20056;-78
2023/10/02 18:23:53;;;;;;;36.40;16.50;;;22.50;71.20;;;;;;4914890;29;20016;-80
2023/10/02 18:26:25;;;;;;;35.03;17.23;;;22.20;72.20;;;;;;4915496;29;20028;-80
2023/10/02 18:28:51;;;;;;;34.05;16.30;;;22.10;72.90;;;;;;4921006;29;20020;-79
2023/10/02 18:31:17;;;;;;;36.90;17.10;;;21.90;73.70;;;;;;4931158;29;20038;-80
2023/10/02 18:33:56;;;;;;;36.00;16.15;;;21.80;74.10;;;;;;4940818;29;20023;-77
2023/10/02 18:36:52;;;;;;;36.22;17.38;;;21.70;74.50;;;;;;4931883;29;20055;-79
2023/10/02 18:39:33;;;;;;;33.63;15.98;;;21.70;74.60;;;;;;4937236;29;20032;-79
2023/10/02 18:42:10;;;;;;;36.30;16.27;;;21.60;75.00;;;;;;4927706;29;20029;-79
2023/10/02 18:44:46;;;;;;;35.47;16.63;;;21.50;75.30;;;;;;4927331;29;20028;-79
2023/10/02 18:48:21;;;;;;;35.33;16.52;;;21.40;75.30;;;;;;4936095;29;20102;-80
2023/10/02 18:50:53;;;;;;;34.63;16.92;;;21.40;75.30;;;;;;4945090;29;20046;-79
2023/10/02 18:54:12;;;;;;;35.55;16.98;;;21.40;76.40;;;;;;4942086;29;20052;-79
2023/10/02 18:57:09;;;;;;;35.92;17.30;;;21.30;76.20;;;;;;4913231;29;20092;-79
2023/10/02 18:59:35;;;;;;;36.40;18.92;;;21.10;75.60;;;;;;4906781;29;20029;-78
2023/10/02 19:02:01;;;;;;;34.97;17.73;;;21.00;76.00;;;;;;4908598;29;20326;-78
2023/10/02 19:05:45;;;;;;;34.75;16.58;;;20.80;75.60;;;;;;4887615;29;20036;-79
2023/10/02 19:08:14;;;;;;;48.50;24.33;;;20.60;75.50;;;;;;4863681;29;20037;-80
2023/10/02 19:14:51;;;;;;;35.30;16.25;;;20.40;76.10;;;;;;4887508;29;20071;-80
2023/10/02 19:17:43;;;;;;;38.35;17.50;;;20.30;76.20;;;;;;4868564;29;20076;-80
2023/10/02 19:20:19;;;;;;;37.13;17.73;;;20.30;76.40;;;;;;4831993;29;20038;-79
2023/10/02 19:22:46;;;;;;;35.33;16.95;;;20.30;76.20;;;;;;4817072;29;20221;-79
2023/10/02 19:25:15;;;;;;;35.50;16.50;;;20.40;76.00;;;;;;4832145;29;20289;-78
2023/10/02 19:27:42;;;;;;;38.08;17.60;;;20.40;76.50;;;;;;4831987;29;20076;-82
2023/10/02 19:30:17;;;;;;;37.60;17.48;;;20.40;76.60;;;;;;4817273;29;20324;-78
2023/10/02 19:32:43;;;;;;;37.58;17.00;;;20.30;77.50;;;;;;4850809;29;20046;-79
2023/10/02 19:35:11;;;;;;;34.72;17.23;;;20.20;77.70;;;;;;4850426;29;20382;-81
2023/10/02 19:37:57;;;;;;;36.63;17.58;;;20.10;77.60;;;;;;4835418;29;20033;-82
2023/10/02 19:40:24;;;;;;;35.90;17.63;;;20.00;78.30;;;;;;4849875;29;20041;-81
2023/10/02 19:42:52;;;;;;;38.13;17.73;;;20.00;78.40;;;;;;4901600;29;20072;-80
2023/10/02 19:45:20;;;;;;;37.53;17.55;;;19.80;78.90;;;;;;4890055;29;20097;-80
2023/10/02 19:47:55;;;;;;;41.25;17.98;;;19.70;79.90;;;;;;4906141;29;20037;-80
2023/10/02 19:50:23;;;;;;;41.13;17.77;;;19.60;80.10;;;;;;4898691;29;20035;-82
2023/10/02 19:52:54;;;;;;;37.20;16.77;;;19.50;80.40;;;;;;4944771;29;20048;-78
2023/10/02 19:55:20;;;;;;;38.33;18.15;;;19.40;80.60;;;;;;4925678;29;20341;-81
2023/10/02 19:57:49;;;;;;;45.50;18.52;;;19.30;81.20;;;;;;4907934;29;20024;-78
2023/10/02 20:00:17;;;;;;;38.47;18.02;;;19.30;81.50;;;;;;4923499;29;20028;-77
2023/10/02 20:02:44;;;;;;;38.50;17.77;;;19.30;80.90;;;;;;4890836;29;20032;-78
2023/10/02 20:05:12;;;;;;;39.40;18.23;;;19.20;81.60;;;;;;4907187;29;20103;-80
2023/10/02 20:07:42;;;;;;;39.73;18.30;;;19.20;82.20;;;;;;4923978;29;20044;-76
2023/10/02 20:10:46;;;;;;;43.60;18.50;;;19.10;83.10;;;;;;4893151;29;20475;-78
2023/10/02 20:13:29;;;;;;;40.67;18.35;;;19.00;83.20;;;;;;4917544;29;20257;-76
2023/10/02 20:15:58;;;;;;;37.63;17.35;;;18.90;83.30;;;;;;4928177;29;20139;-76
2023/10/02 20:18:30;;;;;;;38.65;18.02;;;18.80;83.90;;;;;;4927775;29;20046;-77
2023/10/02 20:20:59;;;;;;;41.85;18.60;;;18.80;83.30;;;;;;4927857;29;20201;-80
2023/10/02 20:23:43;;;;;;;37.55;17.30;;;18.80;84.60;;;;;;4911531;29;20032;-79
2023/10/02 20:26:15;;;;;;;41.70;18.85;;;18.70;84.80;;;;;;4896349;29;20320;-78
2023/10/02 20:28:46;;;;;;;41.97;18.45;;;18.60;85.40;;;;;;4911634;29;20032;-77
2023/10/02 20:31:13;;;;;;;42.78;19.73;;;18.60;85.80;;;;;;4936417;29;20028;-78